Time;durP1;ratioP1;P1;durP2;ratioP2;P2;SDS_P1;SDS_P2;PMS_P1;PMS_P2;Temp;Humidity;BMP_temperature;BMP_pressure;BME280_temperature;BME280_humidity;BME280_pressure;Samples;Min_cycle;Max_cycle;Signal;HPM_P1;HPM_P2
2022/11/16 00:01:37;;;;;;;16.17;11.25;;;;;;;9.69;100.00;99659.38;10372953;28;20486;-84
2022/11/16 00:06:38;;;;;;;14.55;10.02;;;;;;;9.65;100.00;99653.16;10382316;28;20046;-83
2022/11/16 00:11:39;;;;;;;16.90;11.13;;;;;;;9.68;100.00;99652.38;10364387;28;20490;-85
2022/11/16 00:16:39;;;;;;;16.88;11.90;;;;;;;9.67;100.00;99648.00;10400283;28;20038;-83
2022/11/16 00:21:40;;;;;;;20.13;11.95;;;;;;;9.68;100.00;99655.00;10386590;28;20033;-83
2022/11/16 00:26:41;;;;;;;20.13;14.30;;;;;;;9.70;100.00;99662.03;10389090;28;20044;-79
2022/11/16 00:31:41;;;;;;;27.77;16.98;;;;;;;9.70;100.00;99656.78;10382523;28;20042;-82
2022/11/16 00:36:42;;;;;;;21.92;16.20;;;;;;;9.73;100.00;99666.47;10398888;28;20052;-82
2022/11/16 00:41:43;;;;;;;25.77;19.10;;;;;;;9.71;100.00;99665.53;10390720;28;20164;-81
2022/11/16 00:46:44;;;;;;;26.17;18.23;;;;;;;9.72;100.00;99646.41;10381872;28;20070;-82
2022/11/16 00:51:44;;;;;;;27.35;18.08;;;;;;;9.69;100.00;99660.25;10371061;28;20124;-81
2022/11/16 00:56:45;;;;;;;25.67;17.52;;;;;;;9.72;100.00;99661.19;10399771;28;20447;-81
2022/11/16 01:01:45;;;;;;;23.63;16.02;;;;;;;9.72;100.00;99656.88;10394574;28;20038;-81
2022/11/16 01:06:46;;;;;;;23.35;16.60;;;;;;;9.74;100.00;99655.19;10363350;28;20087;-81
2022/11/16 01:17:05;;;;;;;24.50;16.10;;;;;;;9.86;100.00;99643.34;10375261;28;20509;-81
2022/11/16 01:22:06;;;;;;;22.80;16.17;;;;;;;9.80;100.00;99638.78;10361571;28;20042;-82
2022/11/16 01:27:06;;;;;;;23.27;14.55;;;;;;;9.82;100.00;99630.19;10371704;28;20049;-81
2022/11/16 01:32:07;;;;;;;29.77;17.80;;;;;;;9.81;100.00;99630.13;10401362;28;20120;-81
2022/11/16 01:37:07;;;;;;;24.48;17.70;;;;;;;9.74;100.00;99630.78;10382701;28;20426;-81
2022/11/16 01:42:18;;;;;;;25.23;17.10;;;;;;;9.73;100.00;99626.38;10383119;28;20133;-81
2022/11/16 01:47:19;;;;;;;24.63;15.55;;;;;;;9.69;100.00;99626.28;10371428;28;20037;-82
2022/11/16 01:52:22;;;;;;;26.65;18.02;;;;;;;9.69;100.00;99635.88;10402437;28;20052;-82
2022/11/16 01:57:25;;;;;;;26.42;18.40;;;;;;;9.65;100.00;99629.63;10371381;28;20038;-81
2022/11/16 02:02:25;;;;;;;27.00;17.88;;;;;;;9.68;100.00;99626.25;10395301;28;20080;-81
2022/11/16 02:13:06;;;;;;;28.48;17.85;;;;;;;9.67;100.00;99620.13;10400718;28;20041;-82
2022/11/16 02:18:11;;;;;;;29.88;18.33;;;;;;;9.66;100.00;99607.91;10381797;28;20095;-82
2022/11/16 02:23:35;;;;;;;31.02;19.52;;;;;;;9.70;100.00;99609.78;10360872;28;20052;-81
2022/11/16 02:28:45;;;;;;;27.45;18.08;;;;;;;9.73;100.00;99603.78;10372513;28;20567;-81
2022/11/16 02:33:45;;;;;;;26.55;17.48;;;;;;;9.71;100.00;99602.84;10359683;28;20125;-80
2022/11/16 02:38:59;;;;;;;20.85;15.38;;;;;;;9.76;100.00;99601.25;10340807;28;20524;-81
2022/11/16 02:44:21;;;;;;;30.48;16.50;;;;;;;9.79;100.00;99608.28;10360214;28;20145;-80
2022/11/16 02:49:22;;;;;;;24.88;14.68;;;;;;;9.72;100.00;99595.88;10357493;28;20038;-81
2022/11/16 02:54:23;;;;;;;24.35;15.73;;;;;;;9.73;100.00;99602.88;10357637;28;20112;-81
2022/11/16 02:59:27;;;;;;;23.37;14.63;;;;;;;9.70;100.00;99601.94;10340832;28;20045;-81
2022/11/16 03:04:31;;;;;;;24.13;15.13;;;;;;;9.62;100.00;99598.19;10341235;28;20041;-82
2022/11/16 03:09:33;;;;;;;25.20;14.38;;;;;;;9.61;100.00;99599.03;10339334;28;20413;-81
2022/11/16 03:15:07;;;;;;;26.13;13.43;;;;;;;9.61;100.00;99601.66;10339376;28;20103;-81
2022/11/16 03:20:12;;;;;;;36.08;16.30;;;;;;;9.69;100.00;99597.53;10330485;28;20046;-80
2022/11/16 03:25:15;;;;;;;17.83;12.80;;;;;;;9.74;100.00;99609.88;10340340;28;20442;-81
2022/11/16 03:30:20;;;;;;;18.73;12.57;;;;;;;9.74;100.00;99609.88;10373190;28;20034;-80
2022/11/16 03:35:39;;;;;;;16.90;10.82;;;;;;;9.79;100.00;99608.28;10396441;28;20478;-80
2022/11/16 03:40:40;;;;;;;19.98;10.60;;;;;;;9.85;100.00;99624.16;10381392;28;20100;-81
2022/11/16 03:45:44;;;;;;;14.98;10.50;;;;;;;9.82;100.00;99631.88;10356402;28;20444;-81
2022/11/16 03:50:46;;;;;;;15.90;11.13;;;;;;;9.82;100.00;99637.13;10357755;28;20042;-81
2022/11/16 03:55:47;;;;;;;17.95;9.98;;;;;;;9.89;100.00;99636.47;10355262;28;20398;-81
2022/11/16 04:00:49;;;;;;;19.30;10.73;;;;;;;9.88;100.00;99626.84;10357296;28;20140;-80
2022/11/16 04:38:25;;;;;;;15.98;8.30;;;;;;;9.66;100.00;99680.19;10361137;28;20052;-83
2022/11/16 04:43:31;;;;;;;17.08;11.00;;;;;;;9.58;100.00;99690.38;10361940;28;20038;-82
2022/11/16 04:48:36;;;;;;;21.90;8.68;;;;;;;9.43;100.00;99685.53;10362204;28;20049;-83
2022/11/16 04:53:37;;;;;;;16.42;8.73;;;;;;;9.38;100.00;99694.94;10363027;28;20033;-82
2022/11/16 04:58:40;;;;;;;16.80;8.98;;;;;;;9.29;100.00;99699.84;10363208;28;20065;-82
2022/11/16 05:03:42;;;;;;;13.32;9.68;;;;;;;9.09;100.00;99703.53;10400446;28;20060;-82
2022/11/16 05:08:43;;;;;;;42.22;9.25;;;;;;;8.96;100.00;99701.31;10391390;28;20045;-83
2022/11/16 05:13:45;;;;;;;16.20;11.97;;;;;;;8.94;100.00;99703.91;10360970;28;20038;-82
2022/11/16 05:20:59;;;;;;;16.98;9.93;;;;;;;8.93;100.00;99709.06;10367693;28;20046;-82
2022/11/16 05:29:31;;;;;;;23.50;12.23;;;;;;;8.84;100.00;99708.72;10360321;28;20125;-80
2022/11/16 05:34:32;;;;;;;19.02;10.02;;;;;;;8.69;100.00;99706.47;10343963;28;20041;-83
2022/11/16 05:39:40;;;;;;;20.08;12.73;;;;;;;8.57;100.00;99705.19;10361034;28;20049;-82
2022/11/16 05:44:41;;;;;;;22.33;13.05;;;;;;;8.42;100.00;99708.03;10344479;28;20556;-83
2022/11/16 05:49:47;;;;;;;69.05;15.70;;;;;;;8.24;100.00;99716.06;10354988;28;20046;-85
2022/11/16 05:54:58;;;;;;;238.60;40.58;;;;;;;7.96;100.00;99715.00;10357722;28;20524;-87
2022/11/16 06:00:13;;;;;;;17.10;10.25;;;;;;;7.99;100.00;99725.53;10355202;28;20042;-88
2022/11/16 06:05:40;;;;;;;19.65;11.35;;;;;;;7.76;100.00;99725.50;10315871;28;20053;-83
2022/11/16 06:10:44;;;;;;;19.67;10.50;;;;;;;7.56;100.00;99729.88;10357499;28;20049;-84
2022/11/16 06:15:55;;;;;;;29.20;11.52;;;;;;;7.60;100.00;99729.19;10371460;28;20042;-87
2022/11/16 06:20:55;;;;;;;20.92;11.00;;;;;;;7.69;100.00;99735.59;10349048;28;20065;-82
2022/11/16 06:25:59;;;;;;;19.65;10.45;;;;;;;7.64;100.00;99751.91;10356057;28;20127;-84
2022/11/16 06:31:00;;;;;;;21.98;15.02;;;;;;;7.61;100.00;99753.53;10357697;28;20042;-82
2022/11/16 06:36:02;;;;;;;127.47;21.27;;;;;;;7.47;100.00;99758.13;10356402;28;20034;-86
2022/11/16 06:41:06;;;;;;;18.10;11.93;;;;;;;7.35;100.00;99767.19;10356843;28;20041;-81
2022/11/16 06:46:10;;;;;;;24.73;13.80;;;;;;;7.42;100.00;99765.75;10356606;28;20133;-84
2022/11/16 06:51:11;;;;;;;23.27;11.18;;;;;;;7.27;100.00;99760.78;10358129;28;20132;-83
2022/11/16 06:56:12;;;;;;;14.25;8.93;;;;;;;7.29;100.00;99776.47;10358556;28;20065;-88
2022/11/16 07:01:14;;;;;;;28.77;11.27;;;;;;;7.13;100.00;99780.09;10340431;28;20559;-87
2022/11/16 07:06:15;;;;;;;15.83;7.17;;;;;;;6.99;100.00;99780.38;10357043;28;20104;-84
2022/11/16 07:11:19;;;;;;;13.18;6.95;;;;;;;6.92;100.00;99793.94;10358303;28;20064;-87
2022/11/16 07:16:20;;;;;;;27.60;8.25;;;;;;;6.70;100.00;99800.75;10356358;28;20054;-88
2022/11/16 07:21:20;;;;;;;28.75;10.57;;;;;;;6.79;100.00;99807.19;10353219;28;20045;-85
2022/11/16 07:26:21;;;;;;;24.80;8.55;;;;;;;6.76;100.00;99808.84;10356630;28;20100;-85
2022/11/16 07:31:22;;;;;;;21.70;12.27;;;;;;;6.75;100.00;99812.25;10338462;28;20053;-85
2022/11/16 07:36:23;;;;;;;29.75;10.15;;;;;;;6.68;100.00;99819.72;10321487;28;20050;-82
2022/11/16 07:41:28;;;;;;;23.20;8.02;;;;;;;6.66;100.00;99824.84;10347677;28;20114;-86
2022/11/16 07:46:35;;;;;;;19.60;8.90;;;;;;;6.57;100.00;99827.00;10347929;28;20402;-86
2022/11/16 07:51:41;;;;;;;20.92;6.57;;;;;;;6.46;100.00;99830.00;10347066;28;20513;-86
2022/11/16 07:56:45;;;;;;;22.42;9.38;;;;;;;6.47;100.00;99823.97;10359409;28;20054;-86
2022/11/16 08:01:46;;;;;;;23.58;11.13;;;;;;;6.52;100.00;99834.59;10362112;28;20124;-81
2022/11/16 08:06:53;;;;;;;28.10;10.57;;;;;;;6.55;100.00;99837.34;10325450;28;20042;-87
2022/11/16 08:12:00;;;;;;;18.30;8.77;;;;;;;6.59;100.00;99853.97;10363105;28;20042;-89
2022/11/16 08:17:07;;;;;;;23.85;10.98;;;;;;;6.75;100.00;99847.78;10363071;28;20041;-88
2022/11/16 08:22:10;;;;;;;24.20;10.48;;;;;;;6.85;100.00;99855.22;10363495;28;20052;-87
2022/11/16 08:27:14;;;;;;;25.17;9.80;;;;;;;6.75;100.00;99851.28;10362535;28;20104;-88
2022/11/16 08:32:17;;;;;;;16.30;8.10;;;;;;;6.78;100.00;99858.34;10361139;28;20053;-85
2022/11/16 08:37:21;;;;;;;24.77;8.95;;;;;;;6.90;100.00;99853.72;10364177;28;20561;-86
2022/11/16 08:42:26;;;;;;;20.42;9.77;;;;;;;7.04;100.00;99862.13;10364210;28;20038;-86
2022/11/16 08:47:27;;;;;;;21.50;8.48;;;;;;;7.24;100.00;99853.47;10361298;28;20184;-86
2022/11/16 08:52:29;;;;;;;34.10;11.18;;;;;;;7.33;100.00;99854.75;10362955;28;20030;-85
2022/11/16 08:57:31;;;;;;;15.30;8.27;;;;;;;7.53;100.00;99869.47;10363823;28;20034;-87
2022/11/16 09:02:32;;;;;;;27.30;9.00;;;;;;;8.07;100.00;99879.59;10361853;28;20136;-84
2022/11/16 09:07:42;;;;;;;19.90;9.77;;;;;;;8.75;100.00;99884.94;10362247;28;20046;-84
2022/11/16 09:12:48;;;;;;;25.27;9.57;;;;;;;9.01;100.00;99887.69;10307693;28;20502;-86
2022/11/16 09:17:53;;;;;;;21.80;9.73;;;;;;;8.81;100.00;99897.38;10345104;28;20050;-85
2022/11/16 09:23:00;;;;;;;21.10;7.10;;;;;;;9.24;100.00;99895.50;10345133;28;20163;-87
2022/11/16 09:28:01;;;;;;;19.98;7.88;;;;;;;9.53;100.00;99896.59;10360297;28;20494;-84
2022/11/16 09:33:02;;;;;;;20.02;7.43;;;;;;;10.13;100.00;99896.88;10362876;28;20037;-86
2022/11/16 09:38:03;;;;;;;15.88;3.17;;;;;;;11.06;100.00;99896.38;10368350;28;20049;-85
2022/11/16 09:43:29;;;;;;;11.00;2.40;;;;;;;13.58;89.03;99854.47;10400727;28;20180;-85
2022/11/16 09:48:30;;;;;;;7.30;2.85;;;;;;;16.76;71.43;99841.78;10376133;28;20057;-89
2022/11/16 09:53:52;;;;;;;7.18;2.08;;;;;;;17.98;60.65;99848.38;10361237;28;20041;-80
2022/11/16 09:59:08;;;;;;;9.25;4.10;;;;;;;18.05;56.26;99850.19;10388460;28;20044;-86
2022/11/16 10:04:17;;;;;;;6.55;2.03;;;;;;;18.81;55.80;99843.94;10402718;28;20069;-79
2022/11/16 10:09:19;;;;;;;7.63;2.80;;;;;;;18.42;54.88;99846.69;10383973;28;20037;-80
2022/11/16 10:15:08;;;;;;;12.40;2.08;;;;;;;19.03;52.59;99848.31;10403672;28;20107;-79
2022/11/16 10:20:36;;;;;;;5.13;1.65;;;;;;;19.59;49.00;99849.88;10402641;28;20073;-80
2022/11/16 10:26:41;;;;;;;7.15;2.38;;;;;;;19.79;49.27;99855.03;10394225;28;20128;-82
2022/11/16 10:32:15;;;;;;;5.55;2.00;;;;;;;18.81;48.59;99841.28;10401995;28;20501;-82
2022/11/16 10:37:16;;;;;;;15.70;2.20;;;;;;;18.83;50.77;99839.53;10398831;28;20091;-81
2022/11/16 10:42:21;;;;;;;7.43;2.20;;;;;;;18.95;49.14;99833.31;10401160;28;20423;-82
2022/11/16 10:47:45;;;;;;;6.80;2.05;;;;;;;18.18;51.91;99830.78;10382106;28;20049;-82
2022/11/16 10:52:47;;;;;;;5.47;1.85;;;;;;;17.48;52.47;99827.13;10364780;28;20129;-83
2022/11/16 10:57:54;;;;;;;6.55;1.75;;;;;;;15.94;56.62;99826.22;10356501;28;20506;-81
2022/11/16 11:02:55;;;;;;;5.85;2.38;;;;;;;14.83;60.08;99828.44;10343346;28;20049;-84
2022/11/16 11:08:04;;;;;;;6.72;1.23;;;;;;;14.98;59.85;99820.75;10339010;28;20065;-84
2022/11/16 11:13:10;;;;;;;4.25;2.00;;;;;;;15.67;60.77;99809.22;10342246;28;20045;-83
2022/11/16 11:18:20;;;;;;;7.72;2.35;;;;;;;16.15;57.25;99803.53;10357510;28;20081;-85
2022/11/16 11:23:22;;;;;;;5.70;2.30;;;;;;;15.56;58.08;99798.56;10357729;28;20058;-82
2022/11/16 11:28:32;;;;;;;7.47;1.63;;;;;;;14.47;60.91;99806.88;10324952;28;20588;-82
2022/11/16 11:33:39;;;;;;;6.30;2.10;;;;;;;12.65;68.26;99806.97;10356994;28;20042;-82
2022/11/16 11:39:20;;;;;;;7.28;2.35;;;;;;;11.83;73.00;99812.03;10342196;28;20361;-82
2022/11/16 11:44:21;;;;;;;8.65;1.58;;;;;;;11.65;74.61;99801.09;10312687;28;20100;-82
2022/11/16 11:49:30;;;;;;;7.53;2.20;;;;;;;12.87;72.88;99787.34;10356808;28;20096;-83
2022/11/16 11:54:46;;;;;;;6.10;1.30;;;;;;;14.73;62.88;99777.41;10358518;28;20487;-85
2022/11/16 11:59:51;;;;;;;4.68;1.30;;;;;;;14.04;64.87;99782.50;10356267;28;20038;-88
2022/11/16 12:05:33;;;;;;;5.93;1.70;;;;;;;12.89;67.31;99772.50;10339435;28;20038;-86
2022/11/16 12:10:59;;;;;;;6.00;1.45;;;;;;;12.58;71.22;99763.97;10367068;28;20140;-86
2022/11/16 12:16:42;;;;;;;7.43;2.38;;;;;;;12.24;72.23;99761.47;10379234;28;20121;-86
2022/11/16 12:22:03;;;;;;;3.95;1.35;;;;;;;12.09;72.39;99758.50;10343752;28;20101;-86
2022/11/16 12:27:33;;;;;;;9.07;1.67;;;;;;;12.00;73.35;99746.06;10363448;28;20154;-85
2022/11/16 12:33:14;;;;;;;5.22;1.00;;;;;;;12.00;75.78;99744.31;10362313;28;20042;-88
2022/11/16 12:38:52;;;;;;;4.05;2.20;;;;;;;12.29;75.85;99725.72;10364341;28;20105;-86
2022/11/16 12:44:15;;;;;;;9.40;3.95;;;;;;;15.47;62.44;99723.78;10321765;28;20042;-84
2022/11/16 12:49:41;;;;;;;7.22;3.67;;;;;;;18.49;51.33;99713.31;10348808;28;20099;-84
2022/11/16 12:54:51;;;;;;;7.45;1.70;;;;;;;19.74;46.74;99701.13;10362108;28;20037;-84
2022/11/16 13:00:07;;;;;;;6.40;2.60;;;;;;;18.44;48.49;99689.47;10392663;28;20704;-89
2022/11/16 13:05:20;;;;;;;10.77;2.03;;;;;;;16.41;56.28;99695.44;10403612;28;20065;-83
2022/11/16 13:10:27;;;;;;;8.70;2.22;;;;;;;15.85;57.46;99688.91;10403109;28;20037;-87
2022/11/16 13:15:50;;;;;;;10.23;2.20;;;;;;;14.76;60.37;99692.28;10334522;28;20041;-85
2022/11/16 13:20:57;;;;;;;4.30;1.95;;;;;;;17.14;54.63;99681.63;10363362;28;20037;-81
2022/11/16 13:26:33;;;;;;;8.00;1.20;;;;;;;18.48;50.59;99679.78;10374509;28;20483;-82
2022/11/16 13:31:40;;;;;;;11.38;1.77;;;;;;;18.44;48.13;99665.63;10314241;28;20041;-86
2022/11/16 13:36:43;;;;;;;11.75;2.13;;;;;;;18.09;49.10;99663.13;10342784;28;20033;-85
2022/11/16 13:42:10;;;;;;;4.75;1.00;;;;;;;17.46;51.43;99665.81;10344655;28;20564;-84
2022/11/16 13:47:26;;;;;;;6.75;2.00;;;;;;;15.92;55.03;99667.00;10341195;28;20494;-84
2022/11/16 13:52:56;;;;;;;6.40;1.80;;;;;;;16.79;53.69;99670.06;10333245;28;20375;-84
2022/11/16 13:58:05;;;;;;;7.05;1.48;;;;;;;14.52;55.44;99659.47;10357536;28;20034;-83
2022/11/16 14:03:19;;;;;;;5.93;1.30;;;;;;;12.95;65.82;99677.19;10360847;28;20128;-85
2022/11/16 14:08:39;;;;;;;10.68;2.20;;;;;;;11.83;72.29;99672.19;10358628;28;20049;-86
2022/11/16 14:13:43;;;;;;;8.95;1.75;;;;;;;11.30;73.54;99671.84;10361038;28;20551;-85
2022/11/16 14:19:10;;;;;;;5.43;1.55;;;;;;;10.80;79.61;99684.47;10342186;28;20050;-85
2022/11/16 14:24:41;;;;;;;3.70;1.67;;;;;;;10.57;83.62;99672.50;10357280;28;20441;-85
2022/11/16 14:30:17;;;;;;;6.18;2.83;;;;;;;10.74;82.21;99659.00;10358628;28;20042;-85
2022/11/16 14:35:27;;;;;;;7.82;1.88;;;;;;;10.39;83.65;99643.16;10359473;28;20046;-85
2022/11/16 14:40:28;;;;;;;4.85;2.08;;;;;;;10.00;85.74;99639.44;10359659;28;20030;-84
2022/11/16 14:45:31;;;;;;;5.70;1.33;;;;;;;9.89;87.86;99639.09;10357312;28;20084;-84
2022/11/16 14:50:34;;;;;;;7.43;1.63;;;;;;;9.86;88.60;99641.59;10358311;28;20030;-85
2022/11/16 14:55:43;;;;;;;7.20;1.50;;;;;;;9.91;86.24;99647.84;10359009;28;20040;-85
2022/11/16 15:01:11;;;;;;;4.88;1.30;;;;;;;9.87;87.31;99624.22;10342322;28;20065;-85
2022/11/16 15:06:15;;;;;;;4.80;1.02;;;;;;;9.64;89.90;99629.59;10340132;28;20041;-85
2022/11/16 15:16:54;;;;;;;8.18;1.38;;;;;;;9.03;95.47;99608.50;10358006;28;20038;-84
2022/11/16 15:21:58;;;;;;;8.05;2.63;;;;;;;8.98;97.15;99610.06;10341708;28;20121;-91
2022/11/16 15:27:28;;;;;;;5.53;1.80;;;;;;;8.76;99.23;99604.97;10356722;28;20045;-83
2022/11/16 15:32:30;;;;;;;12.80;2.47;;;;;;;8.50;99.78;99585.81;10341348;28;20057;-84
2022/11/16 15:37:42;;;;;;;6.40;2.63;;;;;;;8.36;100.00;99588.78;10341433;28;20034;-83
2022/11/16 15:42:43;;;;;;;7.47;2.28;;;;;;;8.29;100.00;99586.78;10357921;28;20378;-83
2022/11/16 15:47:47;;;;;;;10.77;2.55;;;;;;;8.30;100.00;99582.44;10358268;28;20046;-82
2022/11/16 15:52:54;;;;;;;9.07;2.20;;;;;;;8.20;100.00;99560.41;10358760;28;20046;-82
2022/11/16 15:58:16;;;;;;;5.03;2.20;;;;;;;7.96;100.00;99561.28;10339272;28;20038;-85
2022/11/16 16:03:17;;;;;;;6.20;2.00;;;;;;;7.68;100.00;99560.22;10364788;28;20041;-80
2022/11/16 16:08:31;;;;;;;9.00;4.40;;;;;;;7.54;100.00;99553.59;10364832;28;20038;-81
2022/11/16 16:13:35;;;;;;;8.38;2.22;;;;;;;7.37;100.00;99546.03;10341595;28;20494;-80
2022/11/16 16:18:55;;;;;;;7.88;2.05;;;;;;;7.26;100.00;99534.31;10381534;28;20069;-80
2022/11/16 16:24:03;;;;;;;8.70;3.30;;;;;;;7.04;100.00;99533.44;10363855;28;20120;-79
2022/11/16 16:29:26;;;;;;;9.70;3.05;;;;;;;7.00;100.00;99522.00;10329895;28;20116;-79
2022/11/16 16:34:37;;;;;;;8.80;3.08;;;;;;;6.89;100.00;99526.78;10365147;28;20513;-79
2022/11/16 16:40:00;;;;;;;11.15;3.38;;;;;;;6.66;100.00;99522.34;10361579;28;20049;-79
2022/11/16 16:45:19;;;;;;;9.68;2.42;;;;;;;6.63;100.00;99525.69;10357978;28;20037;-78
2022/11/16 16:50:24;;;;;;;9.75;2.88;;;;;;;6.67;100.00;99535.41;10359052;28;20678;-81
2022/11/16 16:55:25;;;;;;;8.48;3.40;;;;;;;6.59;100.00;99532.50;10363570;28;20038;-78
2022/11/16 17:00:26;;;;;;;7.55;2.58;;;;;;;6.56;100.00;99516.78;10360613;28;20180;-78
2022/11/16 17:05:28;;;;;;;13.93;3.50;;;;;;;6.49;100.00;99506.03;10358690;28;20044;-79
2022/11/16 17:10:29;;;;;;;5.65;3.45;;;;;;;6.30;100.00;99503.56;10360443;28;20555;-79
2022/11/16 17:15:30;;;;;;;7.97;2.47;;;;;;;6.26;100.00;99501.66;10336155;28;20038;-79
2022/11/16 17:20:31;;;;;;;4.38;2.55;;;;;;;6.19;100.00;99502.19;10335132;28;20044;-79
2022/11/16 17:25:39;;;;;;;9.95;2.97;;;;;;;6.31;100.00;99500.13;10318913;28;20041;-79
2022/11/16 17:30:48;;;;;;;7.65;2.50;;;;;;;6.16;100.00;99494.28;10311727;28;20104;-78
2022/11/16 17:36:00;;;;;;;7.38;2.78;;;;;;;6.26;100.00;99491.25;10324138;28;20129;-78
2022/11/16 17:41:20;;;;;;;8.98;2.90;;;;;;;6.40;100.00;99489.22;10323211;28;20089;-79
2022/11/16 17:46:24;;;;;;;7.22;4.18;;;;;;;6.39;100.00;99483.97;10343269;28;20472;-77
2022/11/16 17:51:25;;;;;;;9.00;3.78;;;;;;;6.41;100.00;99478.00;10358757;28;20529;-78
2022/11/16 17:56:27;;;;;;;5.50;2.33;;;;;;;6.41;100.00;99472.81;10335808;28;20044;-79
2022/11/16 18:01:31;;;;;;;7.30;3.08;;;;;;;6.51;100.00;99475.78;10354357;28;20034;-79
2022/11/16 18:06:33;;;;;;;13.27;3.00;;;;;;;6.64;100.00;99464.19;10352616;28;20049;-79
2022/11/16 18:11:34;;;;;;;6.28;2.53;;;;;;;6.70;100.00;99460.13;10354710;28;20042;-79
2022/11/16 18:16:35;;;;;;;5.18;2.85;;;;;;;7.02;100.00;99457.06;10358525;28;20038;-79
2022/11/16 18:21:39;;;;;;;5.72;3.67;;;;;;;7.11;100.00;99461.72;10356969;28;20068;-79
2022/11/16 18:26:40;;;;;;;3.88;2.30;;;;;;;7.13;100.00;99467.84;10360050;28;20038;-80
2022/11/16 18:31:40;;;;;;;27.83;3.42;;;;;;;7.20;100.00;99478.59;10358901;28;20478;-81
2022/11/16 18:36:41;;;;;;;7.50;3.80;;;;;;;7.12;100.00;99466.09;10340792;28;20052;-83
2022/11/16 18:41:43;;;;;;;10.30;3.08;;;;;;;7.05;100.00;99452.84;10343076;28;20120;-82
2022/11/16 18:46:43;;;;;;;6.72;3.35;;;;;;;7.14;100.00;99452.31;10371095;28;20049;-81
2022/11/16 18:51:44;;;;;;;7.80;4.50;;;;;;;7.18;100.00;99436.00;10357404;28;20060;-81
2022/11/16 18:56:44;;;;;;;6.18;3.33;;;;;;;7.24;100.00;99429.25;10340365;28;20038;-78
2022/11/16 19:01:45;;;;;;;12.93;3.90;;;;;;;7.27;100.00;99426.78;10357193;28;20049;-79
2022/11/16 19:06:46;;;;;;;9.00;3.45;;;;;;;7.32;100.00;99418.28;10355041;28;20034;-79
2022/11/16 19:11:46;;;;;;;7.32;3.10;;;;;;;7.31;100.00;99408.72;10358440;28;20517;-78
2022/11/16 19:16:48;;;;;;;10.57;4.45;;;;;;;7.42;100.00;99410.81;10355486;28;20096;-80
2022/11/16 19:21:50;;;;;;;6.50;3.30;;;;;;;7.40;100.00;99409.88;10355694;28;20427;-78
2022/11/16 19:26:51;;;;;;;6.32;3.63;;;;;;;7.44;100.00;99398.75;10352309;28;20038;-78
2022/11/16 19:31:51;;;;;;;8.18;3.10;;;;;;;7.57;100.00;99384.47;10354431;28;20068;-79
2022/11/16 19:36:52;;;;;;;12.43;3.70;;;;;;;7.67;100.00;99378.78;10360482;28;20072;-78
2022/11/16 19:41:52;;;;;;;4.50;3.25;;;;;;;7.82;100.00;99364.50;10359614;28;20049;-79
2022/11/16 19:46:53;;;;;;;7.38;3.65;;;;;;;7.92;100.00;99348.38;10363511;28;20072;-79
2022/11/16 19:51:53;;;;;;;10.15;2.85;;;;;;;8.00;100.00;99332.97;10362717;28;20042;-79
2022/11/16 19:56:54;;;;;;;17.55;3.33;;;;;;;8.06;100.00;99307.13;10328124;28;20080;-79
2022/11/16 20:01:54;;;;;;;7.07;3.08;;;;;;;8.08;100.00;99306.34;10362699;28;20134;-79
2022/11/16 20:06:55;;;;;;;5.65;2.35;;;;;;;8.11;100.00;99295.13;10361622;28;20034;-78
2022/11/16 20:11:56;;;;;;;6.65;2.88;;;;;;;8.06;100.00;99273.25;10361059;28;20041;-79
2022/11/16 20:16:57;;;;;;;7.05;2.75;;;;;;;8.08;100.00;99276.78;10361259;28;20034;-78
2022/11/16 20:21:58;;;;;;;4.72;2.72;;;;;;;8.11;100.00;99266.47;10344133;28;20037;-78
2022/11/16 20:26:59;;;;;;;11.95;4.45;;;;;;;8.18;100.00;99265.81;10362405;28;20041;-78
2022/11/16 20:32:00;;;;;;;4.10;2.60;;;;;;;8.20;100.00;99255.47;10361633;28;20608;-80
2022/11/16 20:37:00;;;;;;;5.13;2.30;;;;;;;8.18;100.00;99238.88;10360929;28;20038;-80
2022/11/16 20:42:01;;;;;;;9.00;4.50;;;;;;;8.16;100.00;99233.63;10359748;28;20188;-80
2022/11/16 20:47:01;;;;;;;5.28;2.33;;;;;;;8.26;100.00;99223.47;10360888;28;20502;-80
2022/11/16 20:52:02;;;;;;;5.97;2.78;;;;;;;8.32;100.00;99218.44;10345398;28;20064;-79
2022/11/16 20:57:03;;;;;;;6.78;3.80;;;;;;;8.35;100.00;99214.22;10360158;28;20052;-80
2022/11/16 21:02:04;;;;;;;5.50;2.53;;;;;;;8.43;100.00;99201.41;10362637;28;20038;-79
2022/11/16 21:07:04;;;;;;;3.28;1.77;;;;;;;8.45;100.00;99199.72;10361260;28;20129;-80
2022/11/16 21:17:24;;;;;;;5.43;2.20;;;;;;;8.56;100.00;99196.56;10401798;28;20048;-81
2022/11/16 21:22:24;;;;;;;7.35;2.20;;;;;;;8.50;100.00;99185.13;10402117;28;20473;-81
2022/11/16 21:27:25;;;;;;;7.65;2.10;;;;;;;8.46;100.00;99175.41;10395153;28;20044;-81
2022/11/16 21:32:25;;;;;;;6.43;2.35;;;;;;;8.41;100.00;99168.31;10397257;28;20120;-81
2022/11/16 21:37:26;;;;;;;7.03;2.70;;;;;;;8.30;100.00;99161.06;10394532;28;20041;-81
2022/11/16 21:42:26;;;;;;;6.65;2.28;;;;;;;8.20;100.00;99139.06;10377622;28;20037;-83
2022/11/16 21:47:28;;;;;;;6.22;1.90;;;;;;;8.05;100.00;99133.38;10400510;28;20065;-83
2022/11/16 21:52:28;;;;;;;6.47;2.00;;;;;;;7.97;100.00;99116.63;10383833;28;20049;-84
2022/11/16 21:57:29;;;;;;;4.60;2.47;;;;;;;7.94;100.00;99112.22;10361908;28;20438;-83
2022/11/16 22:02:29;;;;;;;7.45;2.88;;;;;;;7.89;100.00;99096.44;10376200;28;20129;-84
2022/11/16 22:07:35;;;;;;;8.38;3.08;;;;;;;7.89;100.00;99083.44;10374475;28;20133;-82
2022/11/16 22:12:35;;;;;;;12.70;2.90;;;;;;;7.91;100.00;99073.94;10382818;28;20030;-85
2022/11/16 22:17:41;;;;;;;10.27;2.88;;;;;;;7.90;100.00;99063.50;10371625;28;20045;-86
2022/11/16 22:22:42;;;;;;;29.90;18.73;;;;;;;7.86;100.00;99049.47;10364515;28;20124;-90
2022/11/16 22:27:45;;;;;;;12.52;6.90;;;;;;;7.86;100.00;99032.97;10339688;28;20050;-89
2022/11/16 22:32:46;;;;;;;10.20;3.65;;;;;;;7.87;100.00;99017.38;10336105;28;20038;-86
2022/11/16 22:37:46;;;;;;;9.93;4.40;;;;;;;7.90;100.00;99006.19;10361564;28;20045;-93
2022/11/16 22:42:47;;;;;;;6.05;3.72;;;;;;;7.93;100.00;98996.72;10342834;28;20478;-89
2022/11/16 22:47:49;;;;;;;11.18;4.38;;;;;;;7.95;100.00;98988.97;10358112;28;20073;-86
2022/11/16 22:52:50;;;;;;;6.78;3.88;;;;;;;8.01;100.00;98978.72;10357305;28;20046;-91
2022/11/16 22:57:50;;;;;;;10.68;4.72;;;;;;;8.03;100.00;98953.59;10342968;28;20120;-89
2022/11/16 23:02:51;;;;;;;10.93;5.18;;;;;;;8.05;100.00;98935.38;10360057;28;20038;-92
2022/11/16 23:07:54;;;;;;;11.63;6.22;;;;;;;8.11;100.00;98896.44;10360380;28;20062;-88
2022/11/16 23:18:14;;;;;;;14.23;6.13;;;;;;;8.14;100.00;98862.66;10358371;28;20046;-91
2022/11/16 23:28:52;;;;;;;12.00;5.00;;;;;;;8.24;100.00;98832.50;10302623;28;20062;-90
2022/11/16 23:33:52;;;;;;;11.82;5.47;;;;;;;8.25;100.00;98816.03;10358626;28;20117;-92
2022/11/16 23:38:53;;;;;;;9.85;4.72;;;;;;;8.26;100.00;98814.28;10361650;28;20045;-93
2022/11/16 23:43:56;;;;;;;8.48;6.07;;;;;;;8.27;100.00;98782.16;10361016;28;20121;-88
2022/11/16 23:48:57;;;;;;;7.70;3.80;;;;;;;8.29;100.00;98773.56;10357965;28;20041;-88
2022/11/16 23:53:57;;;;;;;8.07;4.05;;;;;;;8.32;100.00;98733.63;10343700;28;20042;-95
2022/11/16 23:58:58;;;;;;;9.45;5.55;;;;;;;8.31;100.00;98724.06;10361247;28;20087;-91
